Terminal Aerodrome Forecast
Issued by NWS

Home | Current Version | Previous Version | Text Only | Print | Product List | Glossary On
Versions: 1 2 3 4 5 6 7 8 9 10 11 12 13 14 15 16 17 18 19 20
000
FTUS44 KTSA 240700 AAA
TAFBVO
TAF AMD
KBVO 240747Z 2408/2506 16012KT P6SM BKN150
     FM241000 18012KT P6SM VCTS BKN025CB
      TEMPO 2410/2414 3SM -TSRA BR BKN025CB
     FM241800 32011G21KT P6SM BKN050
     FM250000 33003KT P6SM SCT250=

USA.gov is the U.S. government's official web portal to all federal, state and local government web resources and services.